Time;durP1;ratioP1;P1;durP2;ratioP2;P2;SDS_P1;SDS_P2;PMS_P1;PMS_P2;Temp;Humidity;BMP_temperature;BMP_pressure;BME280_temperature;BME280_humidity;BME280_pressure;Samples;Min_cycle;Max_cycle;Signal;HPM_P1;HPM_P2
2023/01/11 00:02:00;;;;;;;19.73;6.40;;;24.60;99.90;;;;;;5017136;28;20407;-70
2023/01/11 00:04:29;;;;;;;11.00;5.32;;;24.70;99.90;;;;;;5027336;28;20018;-70
2023/01/11 00:06:56;;;;;;;8.93;4.53;;;24.70;99.90;;;;;;5025741;28;20363;-69
2023/01/11 00:09:23;;;;;;;8.77;5.43;;;24.60;99.90;;;;;;5036819;28;20021;-69
2023/01/11 00:11:49;;;;;;;10.93;5.20;;;24.60;99.90;;;;;;5036640;28;20030;-69
2023/01/11 00:14:16;;;;;;;11.00;5.47;;;24.60;99.90;;;;;;5036635;28;20502;-69
2023/01/11 00:16:42;;;;;;;13.10;5.13;;;24.60;99.90;;;;;;5036398;28;20036;-69
2023/01/11 00:19:08;;;;;;;13.30;5.25;;;24.60;99.90;;;;;;5036333;28;20029;-69
2023/01/11 00:21:35;;;;;;;8.07;5.13;;;24.60;99.90;;;;;;5036471;28;20018;-69
2023/01/11 00:24:01;;;;;;;11.00;5.88;;;24.70;99.90;;;;;;5036316;28;20068;-69
2023/01/11 00:26:28;;;;;;;8.52;6.25;;;24.80;99.90;;;;;;5036220;28;20096;-69
2023/01/11 00:28:55;;;;;;;16.67;5.90;;;24.70;99.90;;;;;;5036532;28;20120;-67
2023/01/11 00:31:21;;;;;;;7.18;5.10;;;24.70;99.90;;;;;;5036194;28;20021;-69
2023/01/11 00:33:48;;;;;;;13.10;6.43;;;24.70;99.90;;;;;;5036104;28;20026;-68
2023/01/11 00:36:14;;;;;;;11.57;8.73;;;24.70;99.90;;;;;;5029980;28;20476;-70
2023/01/11 00:38:43;;;;;;;29.98;22.83;;;24.70;99.90;;;;;;5022658;28;20033;-69
2023/01/11 00:49:31;;;;;;;9.45;5.78;;;24.70;99.90;;;;;;5016001;28;20101;-68
2023/01/11 00:51:58;;;;;;;11.90;4.88;;;24.70;99.90;;;;;;5015931;28;20022;-69
2023/01/11 00:54:24;;;;;;;8.63;5.60;;;24.70;99.90;;;;;;5015072;28;20442;-69
2023/01/11 00:56:51;;;;;;;9.20;3.83;;;24.80;99.90;;;;;;5015838;28;20042;-68
2023/01/11 00:59:18;;;;;;;7.25;4.00;;;24.80;99.90;;;;;;5016018;28;20037;-69
2023/01/11 01:01:44;;;;;;;7.68;3.83;;;24.80;99.90;;;;;;5016126;28;20041;-69
2023/01/11 01:04:11;;;;;;;5.57;3.63;;;24.80;99.90;;;;;;5016009;28;20136;-66
2023/01/11 01:06:37;;;;;;;9.77;4.35;;;24.80;99.90;;;;;;5026717;28;20033;-69
2023/01/11 01:09:03;;;;;;;7.32;5.13;;;24.80;99.90;;;;;;5015847;28;20427;-69
2023/01/11 01:11:30;;;;;;;10.07;6.10;;;24.80;99.90;;;;;;5015816;28;20030;-69
2023/01/11 01:16:45;;;;;;;11.73;9.40;;;24.80;99.90;;;;;;5015498;28;20026;-70
2023/01/11 01:19:11;;;;;;;17.63;13.10;;;24.80;99.90;;;;;;5015434;28;20097;-69
2023/01/11 01:21:38;;;;;;;13.73;9.57;;;24.80;99.90;;;;;;5016012;28;20026;-69
2023/01/11 01:24:04;;;;;;;14.25;10.32;;;24.90;99.90;;;;;;5015650;28;20088;-70
2023/01/11 01:26:31;;;;;;;22.48;13.45;;;24.90;99.90;;;;;;5015346;28;20025;-70
2023/01/11 01:28:58;;;;;;;19.92;13.27;;;24.90;99.90;;;;;;5015453;28;20101;-70
2023/01/11 01:31:24;;;;;;;21.88;16.38;;;24.90;99.90;;;;;;5015361;28;20030;-71
2023/01/11 01:33:50;;;;;;;21.15;15.23;;;24.90;99.90;;;;;;5015178;28;20030;-72
2023/01/11 01:36:17;;;;;;;71.53;55.55;;;24.90;99.90;;;;;;5015188;28;20026;-72
2023/01/11 01:38:43;;;;;;;27.25;21.02;;;25.00;99.90;;;;;;5015099;28;20037;-71
2023/01/11 01:41:12;;;;;;;28.77;21.70;;;25.00;99.90;;;;;;5015062;28;20033;-69
2023/01/11 01:43:47;;;;;;;22.70;19.15;;;25.10;99.90;;;;;;5015064;28;20026;-71
2023/01/11 01:46:14;;;;;;;56.60;42.40;;;25.00;99.90;;;;;;5015098;28;20537;-66
2023/01/11 01:48:43;;;;;;;27.77;22.38;;;25.10;99.90;;;;;;5014891;28;20034;-67
2023/01/11 01:51:14;;;;;;;18.90;16.90;;;25.20;99.90;;;;;;5014888;28;20034;-67
2023/01/11 01:53:44;;;;;;;21.67;16.85;;;25.20;99.90;;;;;;5026116;28;20029;-67
2023/01/11 01:56:18;;;;;;;18.98;16.92;;;25.20;99.90;;;;;;5014978;28;20434;-65
2023/01/11 01:58:52;;;;;;;23.00;17.50;;;25.30;99.90;;;;;;5015027;28;20033;-66
2023/01/11 02:04:12;;;;;;;65.90;49.53;;;25.30;99.90;;;;;;5014371;28;20073;-67
2023/01/11 02:06:39;;;;;;;29.90;24.42;;;25.40;99.90;;;;;;5014862;28;20561;-65
2023/01/11 02:09:18;;;;;;;21.40;18.25;;;25.50;99.90;;;;;;5014770;28;20108;-65
2023/01/11 02:11:46;;;;;;;24.73;19.05;;;25.50;99.90;;;;;;5014509;28;20061;-65
2023/01/11 02:14:16;;;;;;;17.42;15.57;;;25.50;99.90;;;;;;5014824;28;20026;-65
2023/01/11 02:16:43;;;;;;;19.98;16.38;;;25.60;99.90;;;;;;5014741;28;20026;-65
2023/01/11 02:19:18;;;;;;;19.15;16.42;;;25.60;99.90;;;;;;5014804;28;20076;-65
2023/01/11 02:21:46;;;;;;;18.88;16.25;;;25.70;99.90;;;;;;5014873;28;20022;-66
2023/01/11 02:24:25;;;;;;;18.17;14.27;;;25.70;99.90;;;;;;5014999;28;20483;-68
2023/01/11 02:27:04;;;;;;;15.85;13.55;;;;;;;;;;5014876;28;20030;-68
2023/01/11 02:29:43;;;;;;;15.32;13.73;;;25.90;99.90;;;;;;5014566;28;20030;-67
2023/01/11 02:32:09;;;;;;;16.25;13.57;;;25.80;99.90;;;;;;5014610;28;20399;-67
2023/01/11 02:35:10;;;;;;;16.48;14.18;;;25.90;99.90;;;;;;5014370;28;20033;-67
2023/01/11 02:37:52;;;;;;;18.73;15.50;;;26.00;99.90;;;;;;4954030;29;20042;-67
2023/01/11 02:40:41;;;;;;;16.42;14.25;;;26.00;99.90;;;;;;4954270;28;20035;-67
2023/01/11 02:46:04;;;;;;;15.20;13.52;;;26.20;99.90;;;;;;4953932;29;20027;-68
2023/01/11 02:48:59;;;;;;;17.50;13.85;;;26.10;99.90;;;;;;4953712;29;20031;-67
2023/01/11 02:51:44;;;;;;;15.80;12.80;;;26.30;99.90;;;;;;4954150;29;20035;-67
2023/01/11 02:54:15;;;;;;;14.13;12.63;;;26.20;99.90;;;;;;4955917;28;20051;-67
2023/01/11 02:56:46;;;;;;;15.52;12.50;;;26.30;99.90;;;;;;4963098;28;20038;-67
2023/01/11 02:59:19;;;;;;;14.45;12.25;;;26.40;99.90;;;;;;4962934;28;20035;-66
2023/01/11 03:01:47;;;;;;;18.17;12.57;;;26.30;99.90;;;;;;4963952;28;20114;-66
2023/01/11 03:04:23;;;;;;;13.50;11.77;;;26.50;99.90;;;;;;4961252;28;20035;-66
2023/01/11 03:07:03;;;;;;;13.98;12.35;;;26.50;99.90;;;;;;4962867;28;20621;-66
2023/01/11 03:09:33;;;;;;;17.92;13.23;;;26.60;99.90;;;;;;5031468;28;20028;-67
2023/01/11 03:15:10;;;;;;;17.52;13.45;;;26.80;99.90;;;;;;5032398;28;20116;-65
2023/01/11 03:18:01;;;;;;;81.65;52.33;;;26.80;99.90;;;;;;5031773;28;20118;-66
2023/01/11 03:20:32;;;;;;;42.65;32.03;;;26.80;99.90;;;;;;5030952;28;20055;-67
2023/01/11 03:23:09;;;;;;;26.83;20.40;;;26.90;99.90;;;;;;5032402;28;20056;-67
2023/01/11 03:26:02;;;;;;;21.23;16.60;;;26.90;99.90;;;;;;5030980;28;20041;-67
2023/01/11 03:28:31;;;;;;;19.88;15.70;;;26.80;99.90;;;;;;5031601;28;20430;-66
2023/01/11 03:31:32;;;;;;;17.17;13.88;;;27.00;99.90;;;;;;5031492;28;20117;-66
2023/01/11 03:34:04;;;;;;;17.27;13.50;;;27.00;99.90;;;;;;4932099;28;20044;-65
2023/01/11 03:36:34;;;;;;;17.60;14.73;;;27.00;99.90;;;;;;4932260;29;20124;-65
2023/01/11 03:39:15;;;;;;;22.92;14.40;;;27.20;99.90;;;;;;4932732;29;20042;-66
2023/01/11 03:41:42;;;;;;;19.88;13.82;;;27.30;99.90;;;;;;4932753;29;20031;-64
2023/01/11 03:44:11;;;;;;;25.88;15.57;;;27.20;99.90;;;;;;4933035;29;20375;-62
2023/01/11 03:46:45;;;;;;;22.35;15.80;;;27.40;99.90;;;;;;4932933;29;20569;-64
2023/01/11 03:49:23;;;;;;;20.52;15.10;;;27.50;99.90;;;;;;4931938;29;20123;-64
2023/01/11 03:51:52;;;;;;;26.95;17.85;;;27.60;99.90;;;;;;4934645;29;20090;-65
2023/01/11 03:54:23;;;;;;;20.65;16.20;;;27.60;99.90;;;;;;4934675;29;20118;-66
2023/01/11 03:56:51;;;;;;;18.75;15.45;;;27.70;99.90;;;;;;4931648;29;20495;-66
2023/01/11 03:59:18;;;;;;;20.42;16.02;;;27.80;99.90;;;;;;4931886;29;20030;-66
2023/01/11 04:01:45;;;;;;;22.80;17.85;;;27.90;99.90;;;;;;4932042;29;20032;-67
2023/01/11 04:04:11;;;;;;;21.02;17.52;;;28.00;99.90;;;;;;4931987;29;20029;-65
2023/01/11 04:06:38;;;;;;;25.88;20.90;;;28.00;99.90;;;;;;4932012;29;20020;-66
2023/01/11 04:09:05;;;;;;;22.20;18.88;;;28.00;99.90;;;;;;4931778;29;20028;-67
2023/01/11 04:11:32;;;;;;;21.65;17.65;;;28.00;99.90;;;;;;5009793;28;20022;-62
2023/01/11 04:13:59;;;;;;;25.45;18.90;;;28.10;99.90;;;;;;5031170;28;20022;-64
2023/01/11 04:16:26;;;;;;;18.40;15.57;;;28.10;99.90;;;;;;5030960;28;20029;-65
2023/01/11 04:18:52;;;;;;;17.20;14.68;;;28.20;99.90;;;;;;5030273;28;20044;-64
2023/01/11 04:21:19;;;;;;;21.23;14.52;;;28.20;99.90;;;;;;5031436;28;20445;-66
2023/01/11 04:23:45;;;;;;;28.70;15.13;;;28.30;99.90;;;;;;5030673;28;20105;-65
2023/01/11 04:26:12;;;;;;;26.10;15.90;;;28.30;99.90;;;;;;5030165;28;20017;-65
2023/01/11 04:28:38;;;;;;;18.30;14.15;;;28.40;99.90;;;;;;5033892;28;20029;-63
2023/01/11 04:31:05;;;;;;;19.50;13.57;;;28.50;99.90;;;;;;5034809;28;20022;-63
2023/01/11 04:33:31;;;;;;;29.33;14.88;;;28.60;99.90;;;;;;5033560;28;20014;-64
2023/01/11 04:35:58;;;;;;;22.73;13.25;;;28.50;99.90;;;;;;5032676;28;20113;-65
2023/01/11 04:38:26;;;;;;;17.90;12.77;;;28.50;99.90;;;;;;5033041;28;20033;-64
2023/01/11 04:42:17;;;;;;;22.75;13.48;;;28.50;99.90;;;;;;5033379;28;20025;-63
2023/01/11 04:43:38;;;;;;;16.80;14.18;;;28.60;99.90;;;;;;5032927;28;20099;-62
2023/01/11 04:46:05;;;;;;;25.52;16.50;;;28.70;99.90;;;;;;5031449;28;20029;-64
2023/01/11 04:48:32;;;;;;;22.17;15.80;;;28.70;99.90;;;;;;5032178;28;20032;-64
2023/01/11 04:50:58;;;;;;;24.88;17.17;;;28.70;99.90;;;;;;5032077;28;20044;-64
2023/01/11 04:53:25;;;;;;;30.85;17.35;;;28.80;99.90;;;;;;5061272;23;20280;-65
2023/01/11 04:55:52;;;;;;;22.10;16.35;;;28.90;99.90;;;;;;5052565;28;20056;-67
2023/01/11 04:58:18;;;;;;;31.92;19.60;;;29.00;99.90;;;;;;5052864;28;20036;-67
2023/01/11 05:00:45;;;;;;;28.80;18.88;;;28.90;99.90;;;;;;5053093;28;20092;-68
2023/01/11 05:03:12;;;;;;;21.20;13.23;;;28.90;99.90;;;;;;5053007;28;20035;-68
2023/01/11 05:05:38;;;;;;;19.58;13.80;;;29.00;99.90;;;;;;5050511;28;20351;-67
2023/01/11 05:08:05;;;;;;;16.15;12.13;;;29.00;99.90;;;;;;5052237;28;20032;-65
2023/01/11 05:10:32;;;;;;;16.88;12.70;;;28.90;99.90;;;;;;5053553;28;20048;-64
2023/01/11 05:12:59;;;;;;;15.23;11.88;;;28.90;99.90;;;;;;5053347;28;20202;-65
2023/01/11 05:15:25;;;;;;;16.77;12.43;;;29.00;99.90;;;;;;5053641;28;20029;-64
2023/01/11 05:17:52;;;;;;;16.77;11.35;;;29.00;99.90;;;;;;5053569;28;20501;-64
2023/01/11 05:20:18;;;;;;;19.75;11.48;;;29.00;99.90;;;;;;5053562;28;20036;-64
2023/01/11 05:22:45;;;;;;;18.75;11.43;;;29.00;99.90;;;;;;5046900;28;20024;-63
2023/01/11 05:25:11;;;;;;;14.25;11.43;;;29.10;99.90;;;;;;5025067;28;20438;-63
2023/01/11 05:27:38;;;;;;;19.98;15.43;;;29.10;99.90;;;;;;5023222;28;20033;-65
2023/01/11 05:30:05;;;;;;;20.77;14.75;;;29.20;99.90;;;;;;5024890;28;20021;-65
2023/01/11 05:32:31;;;;;;;26.88;16.75;;;29.20;99.90;;;;;;5025161;28;20018;-65
2023/01/11 05:34:58;;;;;;;19.00;14.45;;;29.30;99.90;;;;;;5023273;28;20103;-65
2023/01/11 05:37:25;;;;;;;14.90;13.05;;;29.30;99.90;;;;;;5024751;28;20029;-65
2023/01/11 05:39:51;;;;;;;23.85;14.15;;;29.40;99.90;;;;;;5024391;28;20056;-63
2023/01/11 05:42:18;;;;;;;22.92;14.55;;;29.30;99.90;;;;;;5025079;28;20025;-63
2023/01/11 05:47:31;;;;;;;25.10;17.35;;;29.40;99.90;;;;;;5024271;28;20029;-64
2023/01/11 05:49:58;;;;;;;22.67;15.73;;;29.40;99.90;;;;;;5023257;28;20519;-64
2023/01/11 05:52:24;;;;;;;27.33;17.98;;;29.50;99.90;;;;;;5025906;28;20041;-64
2023/01/11 05:54:51;;;;;;;31.30;18.75;;;29.50;99.90;;;;;;5033482;28;20060;-65
2023/01/11 05:57:17;;;;;;;29.52;19.83;;;29.60;99.90;;;;;;5025954;28;20029;-65
2023/01/11 05:59:44;;;;;;;33.90;20.20;;;29.50;99.90;;;;;;5025057;28;20052;-65
2023/01/11 06:02:10;;;;;;;32.67;19.33;;;29.70;99.90;;;;;;5024637;28;20018;-65
2023/01/11 06:04:37;;;;;;;38.40;22.17;;;29.70;99.90;;;;;;5023124;28;20479;-66
2023/01/11 06:07:03;;;;;;;31.48;21.08;;;29.90;99.90;;;;;;5024662;28;20021;-65
2023/01/11 06:09:30;;;;;;;35.78;21.45;;;29.90;99.90;;;;;;5022010;28;20051;-65
2023/01/11 06:11:56;;;;;;;31.92;19.67;;;30.10;99.90;;;;;;5022156;28;20113;-64
2023/01/11 06:14:23;;;;;;;35.08;21.08;;;30.10;99.90;;;;;;5023253;28;20044;-65
2023/01/11 06:16:49;;;;;;;33.72;18.80;;;30.20;99.90;;;;;;5023689;28;20075;-65
2023/01/11 06:19:16;;;;;;;27.88;19.38;;;30.30;99.90;;;;;;5022399;28;20097;-65
2023/01/11 06:21:42;;;;;;;30.23;20.02;;;30.40;99.90;;;;;;5022701;28;20028;-65
2023/01/11 06:24:09;;;;;;;31.13;18.83;;;30.30;99.90;;;;;;5023811;28;20060;-65
2023/01/11 06:26:35;;;;;;;34.25;19.45;;;30.30;99.90;;;;;;5018469;28;20025;-64
2023/01/11 06:29:02;;;;;;;36.33;20.70;;;30.30;99.90;;;;;;5018216;28;20053;-63
2023/01/11 06:31:28;;;;;;;31.90;20.98;;;30.30;99.90;;;;;;5018325;28;20048;-63
2023/01/11 06:33:55;;;;;;;33.83;19.90;;;30.30;99.90;;;;;;5018677;28;20490;-65
2023/01/11 06:36:21;;;;;;;33.15;19.17;;;30.50;99.90;;;;;;5027931;28;20080;-64
2023/01/11 06:38:48;;;;;;;29.40;19.05;;;30.50;99.90;;;;;;5017954;28;20026;-63
2023/01/11 06:41:14;;;;;;;29.92;19.33;;;30.60;99.90;;;;;;5017429;28;20009;-66
2023/01/11 06:43:41;;;;;;;32.33;19.40;;;30.70;99.90;;;;;;5020238;28;20028;-66
2023/01/11 06:46:12;;;;;;;33.75;20.98;;;30.60;99.90;;;;;;5013361;28;20034;-65
2023/01/11 06:48:38;;;;;;;32.47;19.08;;;30.60;99.90;;;;;;5012375;28;20427;-64
2023/01/11 06:51:05;;;;;;;29.95;18.60;;;30.70;99.90;;;;;;5011286;28;20109;-66
2023/01/11 06:53:32;;;;;;;29.13;19.13;;;30.70;99.90;;;;;;5011659;28;20045;-66
2023/01/11 06:55:59;;;;;;;30.13;19.85;;;30.70;99.90;;;;;;5011777;28;20068;-65
2023/01/11 06:58:26;;;;;;;30.25;19.42;;;30.70;99.90;;;;;;5011701;28;20028;-65
2023/01/11 07:00:55;;;;;;;31.63;19.63;;;30.70;99.90;;;;;;5011909;28;20111;-65
2023/01/11 07:03:23;;;;;;;32.22;19.73;;;30.90;99.90;;;;;;5028613;28;20053;-66
2023/01/11 07:05:51;;;;;;;32.55;19.83;;;30.90;99.90;;;;;;5030799;28;20029;-66
2023/01/11 07:08:19;;;;;;;29.33;19.00;;;30.90;99.90;;;;;;5031408;28;20040;-65
2023/01/11 07:10:46;;;;;;;28.75;18.20;;;30.90;99.90;;;;;;5031193;28;20417;-65
2023/01/11 07:13:15;;;;;;;28.35;17.30;;;30.90;99.90;;;;;;5019278;28;20141;-64
2023/01/11 07:15:45;;;;;;;26.63;18.70;;;30.90;99.90;;;;;;5022924;28;20040;-64
2023/01/11 07:18:11;;;;;;;27.17;18.40;;;30.90;99.90;;;;;;5033116;28;20437;-65
2023/01/11 07:20:38;;;;;;;25.73;17.75;;;30.90;99.90;;;;;;5029485;28;20013;-65
2023/01/11 07:23:06;;;;;;;26.95;18.08;;;31.00;99.90;;;;;;5032235;28;20025;-63
2023/01/11 07:25:33;;;;;;;24.70;18.17;;;31.00;99.90;;;;;;5019835;28;20053;-64
2023/01/11 07:28:02;;;;;;;26.40;18.55;;;31.10;99.90;;;;;;5013814;28;20032;-65
2023/01/11 07:30:30;;;;;;;22.20;17.55;;;31.20;99.90;;;;;;5015736;28;20022;-64
2023/01/11 07:32:58;;;;;;;26.92;17.90;;;31.20;99.90;;;;;;5022636;28;20114;-64
2023/01/11 07:35:26;;;;;;;28.95;20.15;;;31.20;99.90;;;;;;5021010;28;20145;-65
2023/01/11 07:37:52;;;;;;;27.50;20.13;;;31.20;99.90;;;;;;5022109;28;20018;-64
2023/01/11 07:40:19;;;;;;;34.22;23.52;;;31.20;99.90;;;;;;5022778;28;20023;-64
2023/01/11 07:45:37;;;;;;;287.20;200.95;;;31.10;99.90;;;;;;5023532;28;20068;-64
2023/01/11 07:48:07;;;;;;;114.07;80.03;;;31.20;99.90;;;;;;5020900;28;20025;-64
2023/01/11 07:50:33;;;;;;;70.50;47.20;;;31.20;99.90;;;;;;5021744;28;20025;-65
2023/01/11 07:53:00;;;;;;;52.28;41.72;;;31.20;99.90;;;;;;5022585;28;20050;-64
2023/01/11 07:55:26;;;;;;;50.30;34.55;;;31.20;99.90;;;;;;5021626;28;20034;-65
2023/01/11 07:57:56;;;;;;;62.10;43.72;;;31.20;99.90;;;;;;5021514;28;20448;-64
2023/01/11 08:00:23;;;;;;;148.05;117.18;;;31.20;99.90;;;;;;5020816;28;20096;-64
2023/01/11 08:02:51;;;;;;;45.03;32.53;;;31.20;99.90;;;;;;5019820;28;20153;-64
2023/01/11 08:05:20;;;;;;;38.80;25.90;;;31.20;99.90;;;;;;5016786;28;20076;-65
2023/01/11 08:07:47;;;;;;;33.17;24.20;;;31.20;99.90;;;;;;5016755;28;20025;-64
2023/01/11 08:10:14;;;;;;;55.00;39.58;;;31.10;99.90;;;;;;5018165;28;20026;-64
2023/01/11 08:15:31;;;;;;;36.10;26.75;;;31.10;99.90;;;;;;5032217;28;20025;-64
2023/01/11 08:17:58;;;;;;;43.88;31.33;;;31.00;99.90;;;;;;5027903;28;20034;-64
2023/01/11 08:20:25;;;;;;;71.57;50.42;;;31.00;99.90;;;;;;5016794;28;20025;-64
2023/01/11 08:22:53;;;;;;;120.53;84.65;;;30.90;99.90;;;;;;5016686;28;20017;-64
2023/01/11 08:25:20;;;;;;;117.55;87.75;;;31.00;99.90;;;;;;5023030;28;20038;-63
2023/01/11 08:27:46;;;;;;;127.32;92.70;;;30.90;99.90;;;;;;5027389;28;20034;-63
2023/01/11 08:30:13;;;;;;;95.88;69.93;;;30.90;99.90;;;;;;5036095;28;20443;-64
2023/01/11 08:32:39;;;;;;;81.63;58.90;;;30.90;99.90;;;;;;5036505;28;20030;-64
2023/01/11 08:35:06;;;;;;;64.53;47.05;;;30.80;99.90;;;;;;5035986;28;20033;-63
2023/01/11 08:37:33;;;;;;;63.90;46.03;;;30.70;99.90;;;;;;5036168;28;20366;-64
2023/01/11 08:39:59;;;;;;;52.50;38.22;;;30.70;99.90;;;;;;5026299;28;20038;-64
2023/01/11 08:42:26;;;;;;;58.45;42.92;;;30.80;99.90;;;;;;5015259;28;20045;-65
2023/01/11 08:44:54;;;;;;;63.67;45.97;;;30.60;99.90;;;;;;5016386;28;20076;-64
2023/01/11 08:47:21;;;;;;;67.47;48.20;;;30.60;99.90;;;;;;5016494;28;20471;-65
2023/01/11 08:49:48;;;;;;;66.88;48.40;;;30.50;99.90;;;;;;5015390;28;20037;-65
2023/01/11 08:52:14;;;;;;;68.55;50.63;;;30.50;99.90;;;;;;5014325;28;20105;-64
2023/01/11 08:54:41;;;;;;;77.07;55.78;;;30.60;99.90;;;;;;5014290;28;20388;-64
2023/01/11 08:57:08;;;;;;;80.60;58.45;;;30.70;99.90;;;;;;5014255;28;20033;-65
2023/01/11 08:59:34;;;;;;;95.97;67.85;;;30.70;99.90;;;;;;5016138;28;20070;-63
2023/01/11 09:02:01;;;;;;;87.82;65.70;;;30.70;99.90;;;;;;5033349;28;20017;-62
2023/01/11 09:04:28;;;;;;;81.65;59.35;;;30.80;99.90;;;;;;5023982;28;20125;-63
2023/01/11 09:06:55;;;;;;;71.50;54.60;;;30.80;99.90;;;;;;5025424;28;20033;-63
2023/01/11 09:09:21;;;;;;;81.40;55.88;;;30.90;99.90;;;;;;5025681;28;20018;-63
2023/01/11 09:11:59;;;;;;;61.17;44.60;;;30.90;99.90;;;;;;5024049;28;20076;-63
2023/01/11 09:14:27;;;;;;;59.00;42.05;;;31.00;99.90;;;;;;5023586;28;20029;-63
2023/01/11 09:16:54;;;;;;;61.55;47.83;;;31.10;99.90;;;;;;5025806;28;20021;-61
2023/01/11 09:19:21;;;;;;;74.72;53.63;;;31.10;99.90;;;;;;5024334;28;20033;-63
2023/01/11 09:21:48;;;;;;;76.45;57.00;;;31.20;99.90;;;;;;5022927;28;20026;-63
2023/01/11 09:24:14;;;;;;;97.78;70.13;;;31.30;99.90;;;;;;5033969;28;20017;-63
2023/01/11 09:26:42;;;;;;;139.43;104.97;;;31.30;99.90;;;;;;5035376;28;20029;-64
2023/01/11 09:29:10;;;;;;;87.63;60.30;;;31.40;99.90;;;;;;5032030;28;20068;-66
2023/01/11 09:31:36;;;;;;;52.45;39.30;;;31.40;99.90;;;;;;5023936;28;20040;-65
2023/01/11 09:34:03;;;;;;;71.75;53.00;;;31.30;99.90;;;;;;5023005;28;20038;-65
2023/01/11 09:36:31;;;;;;;55.50;41.05;;;31.30;99.90;;;;;;5024078;28;20068;-63
2023/01/11 09:39:00;;;;;;;64.07;44.78;;;31.30;99.90;;;;;;5025311;28;20386;-64
2023/01/11 09:41:59;;;;;;;57.95;42.45;;;31.30;99.90;;;;;;5024554;28;20402;-65
2023/01/11 09:44:28;;;;;;;55.42;40.13;;;31.30;99.90;;;;;;5022851;28;20372;-65
2023/01/11 09:47:12;;;;;;;57.17;41.78;;;31.30;99.90;;;;;;5020512;28;20029;-67
2023/01/11 09:49:43;;;;;;;60.65;42.85;;;31.30;99.90;;;;;;5025167;28;20093;-66
2023/01/11 09:52:19;;;;;;;54.75;39.05;;;31.20;99.90;;;;;;5007835;28;20387;-65
2023/01/11 09:54:47;;;;;;;53.90;38.40;;;31.20;99.90;;;;;;5032886;28;20045;-65
2023/01/11 09:57:23;;;;;;;46.83;35.40;;;31.20;99.90;;;;;;5030043;28;20062;-65
2023/01/11 09:59:59;;;;;;;36.53;28.33;;;31.20;99.90;;;;;;5032013;28;20092;-67
2023/01/11 10:02:58;;;;;;;37.65;25.70;;;31.20;99.90;;;;;;5030482;28;20029;-67
2023/01/11 10:05:54;;;;;;;28.77;21.13;;;31.10;99.90;;;;;;5024807;28;20034;-65
2023/01/11 10:08:42;;;;;;;26.25;19.83;;;31.10;99.90;;;;;;4942101;29;20134;-62
2023/01/11 10:11:26;;;;;;;24.85;18.30;;;31.10;99.90;;;;;;4939931;29;20031;-64
2023/01/11 10:14:03;;;;;;;27.27;20.42;;;31.10;99.90;;;;;;4942153;29;20043;-62
2023/01/11 10:16:43;;;;;;;27.02;19.45;;;31.10;99.90;;;;;;4942604;29;20075;-66
2023/01/11 10:19:15;;;;;;;26.35;21.33;;;31.00;99.90;;;;;;4941291;29;20042;-63
2023/01/11 10:21:57;;;;;;;29.15;22.63;;;31.00;99.90;;;;;;4942803;29;20024;-63
2023/01/11 10:24:39;;;;;;;34.78;25.80;;;31.00;99.90;;;;;;4942792;29;20030;-63
2023/01/11 10:27:20;;;;;;;38.75;25.60;;;31.00;99.90;;;;;;4954930;29;20038;-65
2023/01/11 10:30:03;;;;;;;39.33;28.08;;;31.00;99.90;;;;;;4954359;29;20058;-65
2023/01/11 10:33:09;;;;;;;38.10;25.00;;;30.90;99.90;;;;;;4954175;29;20487;-65
2023/01/11 10:36:04;;;;;;;36.47;24.25;;;30.90;99.90;;;;;;4953268;29;20114;-64
2023/01/11 10:41:34;;;;;;;38.85;27.77;;;30.90;99.90;;;;;;4915823;29;20044;-66
2023/01/11 10:44:31;;;;;;;39.42;25.70;;;30.80;99.90;;;;;;4900404;29;20112;-65
2023/01/11 10:47:01;;;;;;;40.55;24.50;;;30.80;99.90;;;;;;4951747;29;20023;-66
2023/01/11 10:49:29;;;;;;;32.75;22.58;;;30.80;99.90;;;;;;4952797;28;20027;-66
2023/01/11 10:52:03;;;;;;;42.80;24.58;;;30.70;99.90;;;;;;4953146;29;20031;-67
2023/01/11 10:54:34;;;;;;;43.75;26.30;;;30.80;99.90;;;;;;4950414;29;20236;-66
2023/01/11 10:57:22;;;;;;;48.00;30.27;;;30.80;99.90;;;;;;4952932;29;20392;-67
2023/01/11 11:00:09;;;;;;;31.80;21.50;;;30.80;99.90;;;;;;4953137;28;20106;-66
2023/01/11 11:03:12;;;;;;;53.85;33.30;;;30.70;99.90;;;;;;4948785;29;20067;-66
2023/01/11 11:05:41;;;;;;;63.40;41.45;;;30.70;99.90;;;;;;4951444;29;20024;-65
2023/01/11 11:08:16;;;;;;;79.55;46.03;;;30.70;99.90;;;;;;4952695;29;20119;-65
2023/01/11 11:11:03;;;;;;;121.38;63.22;;;30.70;99.90;;;;;;4952502;29;20031;-66
2023/01/11 11:13:31;;;;;;;110.30;55.60;;;30.70;99.90;;;;;;4952833;29;20031;-66
2023/01/11 11:16:26;;;;;;;139.10;91.43;;;30.70;99.90;;;;;;4952236;29;20501;-66
2023/01/11 11:18:57;;;;;;;139.05;93.55;;;30.70;99.90;;;;;;4949851;29;20038;-67
2023/01/11 11:21:29;;;;;;;75.93;49.60;;;30.60;99.90;;;;;;4952588;29;20465;-67
2023/01/11 11:24:01;;;;;;;77.90;52.45;;;30.60;99.90;;;;;;4950580;29;20086;-67
2023/01/11 11:26:37;;;;;;;91.13;59.72;;;30.50;99.90;;;;;;4952209;29;20416;-66
2023/01/11 11:29:08;;;;;;;61.58;36.47;;;30.60;99.90;;;;;;4952819;29;20106;-65
2023/01/11 11:31:37;;;;;;;110.30;72.88;;;30.50;99.90;;;;;;4950073;29;20050;-66
2023/01/11 11:34:20;;;;;;;114.75;69.07;;;30.60;99.90;;;;;;4952671;29;20583;-67
2023/01/11 11:36:51;;;;;;;66.60;40.85;;;30.50;99.90;;;;;;4952578;28;20110;-67
2023/01/11 11:39:28;;;;;;;71.00;40.53;;;30.40;99.90;;;;;;4956330;29;20046;-67
2023/01/11 11:42:03;;;;;;;58.25;34.63;;;30.40;99.90;;;;;;4955355;29;20027;-65
2023/01/11 11:44:29;;;;;;;58.30;33.88;;;30.40;99.90;;;;;;4976751;28;20443;-65
2023/01/11 11:47:00;;;;;;;51.70;32.85;;;30.30;99.90;;;;;;5020157;28;20472;-65
2023/01/11 11:49:30;;;;;;;46.97;30.10;;;30.40;99.90;;;;;;5026532;28;20053;-64
2023/01/11 11:52:01;;;;;;;47.65;29.42;;;30.30;99.90;;;;;;5031285;28;20029;-65
2023/01/11 11:54:40;;;;;;;52.55;34.13;;;30.30;99.90;;;;;;5022260;28;20077;-65
2023/01/11 11:57:28;;;;;;;65.03;39.70;;;30.40;99.90;;;;;;5022032;28;20079;-65
2023/01/11 12:00:26;;;;;;;70.93;41.13;;;30.30;99.90;;;;;;5030776;28;20014;-65
2023/01/11 12:03:17;;;;;;;52.58;35.25;;;30.30;99.90;;;;;;5031764;28;20475;-65
2023/01/11 12:05:51;;;;;;;40.10;27.67;;;30.20;99.90;;;;;;5030903;28;20034;-68
2023/01/11 12:08:19;;;;;;;45.75;28.27;;;30.20;99.90;;;;;;5031139;28;20390;-66
2023/01/11 12:10:51;;;;;;;39.17;23.75;;;30.20;99.90;;;;;;5026483;28;20442;-66
2023/01/11 12:13:29;;;;;;;30.10;21.05;;;30.10;99.90;;;;;;5031482;28;20032;-66
2023/01/11 12:15:59;;;;;;;30.65;18.30;;;30.10;99.90;;;;;;5028893;28;20086;-65
2023/01/11 12:18:32;;;;;;;29.60;16.83;;;30.00;99.90;;;;;;5027455;28;20478;-67
2023/01/11 12:21:08;;;;;;;32.97;19.42;;;30.00;99.90;;;;;;5029325;28;20030;-66
2023/01/11 12:23:35;;;;;;;27.60;19.67;;;30.00;99.90;;;;;;5012008;28;20024;-66
2023/01/11 12:26:26;;;;;;;36.00;20.65;;;30.00;99.90;;;;;;5029837;28;20418;-66
2023/01/11 12:29:05;;;;;;;44.35;23.83;;;30.00;99.90;;;;;;5028742;28;20052;-66
2023/01/11 12:31:45;;;;;;;46.28;27.77;;;29.90;99.90;;;;;;5023862;28;20383;-66
2023/01/11 12:34:22;;;;;;;43.55;28.70;;;29.90;99.90;;;;;;5028882;28;20127;-66
2023/01/11 12:36:58;;;;;;;44.13;26.92;;;30.00;99.90;;;;;;5026469;28;20301;-68
2023/01/11 12:39:54;;;;;;;51.08;35.35;;;29.90;99.90;;;;;;5025438;28;20035;-68
2023/01/11 12:42:43;;;;;;;56.33;38.20;;;29.80;99.90;;;;;;4946288;29;20039;-67
2023/01/11 12:45:26;;;;;;;47.83;34.17;;;29.70;99.90;;;;;;4942947;29;20171;-68
2023/01/11 12:47:55;;;;;;;44.65;29.08;;;29.60;99.90;;;;;;4942439;29;20028;-66
2023/01/11 12:50:24;;;;;;;41.08;27.98;;;29.50;99.90;;;;;;4945537;29;20519;-67
2023/01/11 12:53:06;;;;;;;35.17;25.83;;;29.50;99.90;;;;;;4946726;29;20051;-67
2023/01/11 12:55:53;;;;;;;38.85;25.27;;;29.50;99.90;;;;;;4945472;29;20106;-67
2023/01/11 12:58:34;;;;;;;46.53;28.27;;;29.50;99.90;;;;;;4941820;29;20038;-67
2023/01/11 13:01:26;;;;;;;49.22;32.13;;;29.50;99.90;;;;;;4942090;29;20035;-67
2023/01/11 13:04:08;;;;;;;49.95;34.17;;;29.40;99.90;;;;;;4942248;29;20035;-67
2023/01/11 13:06:41;;;;;;;;;;;29.40;99.90;;;;;;4942798;29;20047;-65
2023/01/11 13:09:21;;;;;;;56.40;38.35;;;29.30;99.90;;;;;;4945208;29;19914;-65
2023/01/11 13:11:52;;;;;;;50.38;38.35;;;29.30;99.90;;;;;;4951267;28;20067;-64
2023/01/11 13:14:27;;;;;;;56.28;39.38;;;29.30;99.90;;;;;;5025043;28;20036;-64
2023/01/11 13:17:27;;;;;;;51.47;37.05;;;29.30;99.90;;;;;;5025151;28;20013;-65
2023/01/11 13:20:13;;;;;;;51.58;35.75;;;29.20;99.90;;;;;;5024669;28;20362;-65
2023/01/11 13:22:48;;;;;;;49.20;35.72;;;29.20;99.90;;;;;;5024436;28;20014;-65